createdAt,value
2019-06-10T12:34:48.971Z,50.854492
2019-06-10T12:35:48.955Z,50.854492
2019-06-10T12:37:07.955Z,50.952148
2019-06-10T12:38:02.177Z,51.147461
2019-06-10T12:39:04.017Z,51.220703
2019-06-10T12:40:02.056Z,51.422119
2019-06-10T12:41:03.110Z,51.519775
2019-06-10T12:42:03.279Z,51.519775
2019-06-10T12:43:01.652Z,51.617432
2019-06-10T12:43:58.864Z,51.593018
2019-06-10T12:45:01.620Z,51.593018
2019-06-10T12:46:00.786Z,51.690674
2019-06-10T12:47:01.945Z,53.460693
2019-06-10T12:48:00.770Z,53.363037
2019-06-10T12:49:03.587Z,53.137207
2019-06-10T12:50:01.570Z,52.722168
2019-06-10T12:51:01.482Z,52.423096
2019-06-10T12:51:59.238Z,52.008057
2019-06-10T12:53:00.541Z,51.690674
2019-06-10T12:53:59.409Z,51.391602
2019-06-10T12:55:02.019Z,51.074219
2019-06-10T12:56:01.247Z,50.878906
2019-06-10T12:57:02.560Z,50.65918
2019-06-10T12:59:00.959Z,50.366211
2019-06-10T13:00:59.364Z,50.042725
2019-06-10T13:02:10.486Z,49.945068
2019-06-10T13:03:03.473Z,49.847412
2019-06-10T13:03:59.466Z,49.749756
2019-06-10T13:04:59.602Z,49.627686
2019-06-10T13:05:59.553Z,49.627686
2019-06-10T13:07:00.232Z,49.627686
2019-06-10T13:07:59.779Z,49.627686
2019-06-10T13:08:59.606Z,49.627686
2019-06-10T13:09:59.709Z,49.627686
2019-06-10T13:10:59.786Z,49.530029
2019-06-10T13:11:59.733Z,49.530029
2019-06-10T13:13:00.063Z,49.530029
2019-06-10T13:13:59.886Z,49.530029
2019-06-10T13:14:59.841Z,49.505615
2019-06-10T13:15:59.968Z,49.505615
2019-06-10T13:16:58.865Z,49.407959
2019-06-10T14:24:58.788Z,49.383545
2019-06-10T15:47:58.897Z,45.080566
2019-06-10T16:16:55.427Z,44.226074
2019-06-10T16:17:55.192Z,44.927979
2019-06-10T16:18:55.171Z,44.927979
2019-06-10T16:19:55.190Z,45.025635
2019-06-10T16:20:55.157Z,45.129395
2019-06-10T16:21:55.188Z,45.343018
2019-06-10T16:22:55.138Z,45.53833
2019-06-10T16:23:55.126Z,45.53833
2019-06-10T16:24:55.117Z,45.53833
2019-06-10T16:25:55.116Z,45.635986
2019-06-10T16:26:55.088Z,45.733643
2019-06-10T16:27:55.073Z,45.831299
2019-06-10T16:28:55.101Z,45.928955
2019-06-10T16:29:55.056Z,46.051025
2019-06-10T16:30:55.065Z,46.051025
2019-06-10T16:31:55.035Z,46.246338
2019-06-10T16:32:55.023Z,46.343994
2019-06-10T16:33:55.051Z,46.44165
2019-06-10T16:34:55.021Z,46.643066
2019-06-10T16:35:55.034Z,46.838379
2019-06-10T16:36:54.998Z,47.033691
2019-06-10T16:37:56.883Z,47.131348
2019-06-10T16:38:54.993Z,47.131348
2019-06-10T16:39:54.981Z,47.229004
2019-06-10T16:40:54.961Z,47.424316
2019-06-10T16:41:54.950Z,47.424316
2019-06-10T16:42:54.976Z,47.619629
2019-06-10T16:43:54.911Z,47.619629
2019-06-10T16:44:54.903Z,47.619629
2019-06-10T16:45:54.905Z,47.912598
2019-06-10T16:46:54.875Z,47.619629
2019-06-10T16:47:55.012Z,47.521973
2019-06-10T16:48:54.889Z,47.521973
2019-06-10T16:49:54.843Z,47.521973
2019-06-10T16:50:54.843Z,47.619629
2019-06-10T16:51:54.817Z,47.814941
2019-06-10T16:52:54.814Z,48.010254
2019-06-10T16:53:54.821Z,48.010254
2019-06-10T16:54:54.790Z,47.912598
2019-06-10T16:55:54.794Z,47.912598
2019-06-10T16:56:54.779Z,48.010254
2019-06-10T16:57:59.062Z,48.10791
2019-06-10T16:58:55.748Z,48.303223
2019-06-10T16:59:54.760Z,48.406982
2019-06-10T17:01:05.868Z,48.797607
2019-06-10T17:02:05.881Z,48.99292
2019-06-10T17:03:05.974Z,49.285889
2019-06-10T17:04:05.843Z,49.212646
2019-06-10T17:05:05.847Z,49.11499
2019-06-10T17:06:05.840Z,49.11499
2019-06-10T17:07:05.816Z,49.212646
2019-06-10T17:08:05.841Z,49.212646
2019-06-10T17:09:05.795Z,49.310303
2019-06-10T17:10:05.793Z,49.310303
2019-06-10T17:11:05.799Z,49.407959
2019-06-10T17:12:05.757Z,49.407959
2019-06-10T17:13:05.766Z,49.407959
2019-06-10T17:14:05.751Z,49.407959
2019-06-10T17:15:05.753Z,49.505615
2019-06-10T17:16:05.713Z,49.505615
2019-06-10T17:17:05.705Z,49.603271
2019-06-10T17:18:05.706Z,49.603271
2019-06-10T17:19:05.703Z,49.505615
2019-06-10T17:20:05.675Z,49.505615
2019-06-10T17:21:05.662Z,49.505615
2019-06-10T17:22:05.656Z,49.505615
2019-06-10T17:23:05.669Z,49.603271
2019-06-10T17:24:06.655Z,49.603271
2019-06-10T17:25:06.660Z,49.603271
2019-06-10T17:26:05.621Z,49.603271
2019-06-10T17:27:05.592Z,49.603271
2019-06-10T17:28:17.979Z,49.627686
2019-06-10T17:29:06.587Z,49.627686
2019-06-10T17:30:05.602Z,49.627686
2019-06-10T17:31:05.553Z,49.725342
2019-06-10T17:32:05.574Z,49.725342
2019-06-10T17:33:05.555Z,49.725342
2019-06-10T17:34:05.745Z,49.725342
2019-06-10T17:35:05.538Z,49.725342
2019-06-10T17:36:05.498Z,49.725342
2019-06-10T17:37:05.494Z,49.725342
2019-06-10T17:38:05.478Z,49.725342
2019-06-10T17:39:05.505Z,49.725342
2019-06-10T17:40:05.460Z,49.725342
2019-06-10T17:41:05.452Z,49.725342
2019-06-10T17:42:05.436Z,49.725342
2019-06-10T17:43:06.425Z,49.822998
2019-06-10T17:44:05.413Z,49.822998
2019-06-10T17:45:05.431Z,49.822998
2019-06-10T17:46:05.389Z,49.822998
2019-06-10T17:47:05.402Z,49.822998
2019-06-10T17:48:05.383Z,49.725342
2019-06-10T17:49:05.384Z,49.822998
2019-06-10T17:50:05.371Z,49.822998
2019-06-10T17:51:05.359Z,49.822998
2019-06-10T17:52:05.333Z,49.822998
2019-06-10T17:53:05.316Z,49.822998
2019-06-10T17:54:05.306Z,49.822998
2019-06-10T17:55:05.313Z,49.822998
2019-06-10T17:56:05.300Z,49.822998
2019-06-10T17:57:05.292Z,49.920654
2019-06-10T17:58:05.274Z,49.920654
2019-06-10T17:59:05.253Z,49.920654
2019-06-10T18:00:11.319Z,49.920654
2019-06-10T18:01:06.268Z,49.920654
2019-06-10T18:02:06.224Z,49.920654
2019-06-10T18:03:06.227Z,49.920654
2019-06-10T18:04:05.201Z,50.018311
2019-06-10T18:05:05.290Z,50.018311
2019-06-10T18:06:05.201Z,50.018311
2019-06-10T18:07:05.156Z,50.018311
2019-06-10T18:08:05.161Z,50.018311
2019-06-10T18:09:05.139Z,50.018311
2019-06-10T18:10:05.135Z,50.018311
2019-06-10T18:11:05.134Z,50.018311
2019-06-10T18:12:05.125Z,50.115967
2019-06-10T18:13:13.885Z,50.115967
2019-06-10T18:14:06.082Z,50.115967
2019-06-10T18:15:06.092Z,50.115967
2019-06-10T18:16:05.077Z,50.115967
2019-06-10T18:17:05.056Z,50.115967
2019-06-10T18:18:05.050Z,50.115967
2019-06-10T18:19:05.033Z,50.115967
2019-06-10T18:20:05.016Z,50.219727
2019-06-10T18:21:05.006Z,50.219727
2019-06-10T18:22:04.994Z,50.219727
2019-06-10T18:23:04.996Z,50.219727
2019-06-10T18:24:08.200Z,50.219727
2019-06-10T18:25:05.967Z,50.219727
2019-06-10T18:26:04.977Z,50.219727
2019-06-10T18:27:04.963Z,50.219727
2019-06-10T18:28:05.928Z,50.219727
2019-06-10T18:29:08.965Z,50.317383
2019-06-10T18:30:10.619Z,50.317383
2019-06-10T18:31:05.913Z,50.317383
2019-06-10T18:32:04.888Z,50.317383
2019-06-10T18:33:04.899Z,50.317383
2019-06-10T18:34:04.884Z,50.317383
2019-06-10T18:35:04.872Z,50.317383
2019-06-10T18:36:04.963Z,50.317383
2019-06-10T18:37:04.868Z,50.317383
2019-06-10T18:38:04.829Z,50.317383
2019-06-10T18:39:04.842Z,50.317383
2019-06-10T18:40:04.807Z,50.317383
2019-06-10T18:41:04.850Z,50.317383
2019-06-10T18:42:04.777Z,50.317383
2019-06-10T18:43:04.770Z,50.317383
2019-06-10T18:44:18.720Z,50.415039
2019-06-10T18:45:05.764Z,50.415039
2019-06-10T18:46:04.738Z,50.415039
2019-06-10T18:47:04.760Z,50.415039
2019-06-10T18:48:04.723Z,50.415039
2019-06-10T18:49:04.754Z,50.415039
2019-06-10T18:50:04.717Z,50.415039
2019-06-10T18:51:04.691Z,50.415039
2019-06-10T18:52:04.680Z,50.415039
2019-06-10T18:53:04.679Z,50.439453
2019-06-10T18:54:04.663Z,50.512695
2019-06-10T18:55:04.645Z,50.415039
2019-06-10T18:56:04.637Z,50.512695
2019-06-10T18:57:04.619Z,50.512695
2019-06-10T18:58:04.628Z,50.512695
2019-06-10T18:59:16.434Z,50.537109
2019-06-10T19:00:11.060Z,50.512695
2019-06-10T19:01:07.861Z,50.537109
2019-06-10T19:02:06.306Z,50.537109
2019-06-10T19:03:12.256Z,50.537109
2019-06-10T19:04:05.571Z,50.537109
2019-06-10T19:05:04.539Z,50.634766
2019-06-10T19:06:04.549Z,50.634766
2019-06-10T19:07:04.655Z,50.634766
2019-06-10T19:08:04.504Z,50.634766
2019-06-10T19:09:04.503Z,50.634766
2019-06-10T19:10:04.484Z,50.634766
2019-06-10T19:11:04.489Z,50.634766
2019-06-10T19:12:04.528Z,50.732422
2019-06-10T19:13:04.449Z,50.732422
2019-06-10T19:14:04.441Z,50.732422
2019-06-10T19:15:04.442Z,50.732422
2019-06-10T19:16:04.430Z,50.732422
2019-06-10T19:17:04.417Z,50.732422
2019-06-10T19:18:04.397Z,50.830078
2019-06-10T19:19:04.388Z,50.830078
2019-06-10T19:20:04.385Z,50.830078
2019-06-10T19:21:08.539Z,50.830078
2019-06-10T19:22:09.267Z,50.830078
2019-06-10T19:23:04.344Z,50.830078
2019-06-10T19:24:04.330Z,50.830078
2019-06-10T19:25:04.330Z,50.927734
2019-06-10T19:26:04.321Z,50.830078
2019-06-10T19:27:05.622Z,50.830078
2019-06-10T19:28:04.308Z,50.830078
2019-06-10T19:29:04.277Z,50.830078
2019-06-10T19:30:04.270Z,50.830078
2019-06-10T19:31:04.250Z,50.830078
2019-06-10T19:32:05.245Z,50.927734
2019-06-10T19:33:04.234Z,50.830078
2019-06-10T19:34:04.227Z,50.830078
2019-06-10T19:35:06.952Z,50.830078
2019-06-10T19:36:04.232Z,50.927734
2019-06-10T19:37:04.220Z,50.927734
2019-06-10T19:38:04.271Z,50.927734
2019-06-10T19:39:04.187Z,50.927734
2019-06-10T19:40:04.162Z,50.927734
2019-06-10T19:41:04.181Z,50.927734
2019-06-10T19:42:04.153Z,50.927734
2019-06-10T19:43:04.207Z,51.025391
2019-06-10T19:44:04.115Z,51.025391
2019-06-10T19:45:07.139Z,51.025391
2019-06-10T19:46:07.219Z,51.025391
2019-06-10T19:47:04.083Z,51.025391
2019-06-10T19:48:04.085Z,51.025391
2019-06-10T19:49:07.164Z,51.025391
2019-06-10T19:50:04.055Z,51.025391
2019-06-10T19:51:04.059Z,51.025391
2019-06-10T19:52:04.037Z,51.025391
2019-06-10T19:53:04.024Z,51.123047
2019-06-10T19:54:04.009Z,51.123047
2019-06-10T19:55:07.141Z,51.123047
2019-06-10T19:56:05.982Z,51.123047
2019-06-10T19:57:03.996Z,51.123047
2019-06-10T19:58:04.959Z,51.123047
2019-06-10T19:59:04.977Z,51.123047
2019-06-10T20:00:11.645Z,51.123047
2019-06-10T20:01:04.941Z,51.123047
2019-06-10T20:02:03.935Z,51.123047
2019-06-10T20:03:03.925Z,51.123047
2019-06-10T20:04:03.990Z,51.123047
2019-06-10T20:05:03.908Z,51.123047
2019-06-10T20:06:03.901Z,51.220703
2019-06-10T20:07:03.873Z,51.220703
2019-06-10T20:08:03.862Z,51.220703
2019-06-10T20:09:04.030Z,51.220703
2019-06-10T20:10:03.849Z,51.220703
2019-06-10T20:11:03.828Z,51.220703
2019-06-10T20:12:03.817Z,51.220703
2019-06-10T20:13:03.812Z,51.220703
2019-06-10T20:14:03.808Z,51.220703
2019-06-10T20:15:03.778Z,51.220703
2019-06-10T20:16:03.793Z,51.220703
2019-06-10T20:17:03.772Z,51.220703
2019-06-10T20:18:03.756Z,51.318359
2019-06-10T20:19:03.740Z,51.220703
2019-06-10T20:20:03.755Z,51.220703
2019-06-10T20:21:03.742Z,51.220703
2019-06-10T20:22:03.707Z,51.220703
2019-06-10T20:23:03.715Z,51.318359
2019-06-10T20:24:03.708Z,51.318359
2019-06-10T20:25:04.674Z,51.318359
2019-06-10T20:26:03.660Z,51.318359
2019-06-10T20:27:03.670Z,51.318359
2019-06-10T20:28:03.638Z,51.318359
2019-06-10T20:29:04.625Z,51.318359
2019-06-10T20:30:20.477Z,51.318359
2019-06-10T20:31:04.616Z,51.318359
2019-06-10T20:32:04.633Z,51.318359
2019-06-10T20:33:04.593Z,51.318359
2019-06-10T20:34:03.592Z,51.318359
2019-06-10T20:35:04.630Z,51.416016
2019-06-10T20:36:07.015Z,51.416016
2019-06-10T20:37:05.541Z,51.416016
2019-06-10T20:38:05.173Z,51.416016
2019-06-10T20:39:03.527Z,51.416016
2019-06-10T20:40:04.627Z,51.416016
2019-06-10T20:41:03.510Z,51.416016
2019-06-10T20:42:03.500Z,51.416016
2019-06-10T20:43:04.508Z,51.416016
2019-06-10T20:44:03.501Z,51.318359
2019-06-10T20:45:04.952Z,51.416016
2019-06-10T20:46:05.849Z,51.416016
2019-06-10T20:47:03.448Z,51.318359
2019-06-10T20:48:03.470Z,51.416016
2019-06-10T20:49:04.434Z,51.416016
2019-06-10T20:50:04.407Z,51.416016
2019-06-10T20:51:04.401Z,51.416016
2019-06-10T20:52:11.077Z,51.416016
2019-06-10T20:53:13.976Z,51.416016
2019-06-10T20:54:04.359Z,51.416016
2019-06-10T20:55:04.365Z,51.416016
2019-06-10T20:56:04.618Z,51.318359
2019-06-10T20:57:04.397Z,51.416016
2019-06-10T20:58:07.197Z,51.416016
2019-06-10T20:59:04.314Z,51.416016
2019-06-10T21:00:15.930Z,51.416016
2019-06-10T21:01:05.349Z,51.416016
2019-06-10T21:02:04.264Z,51.416016
2019-06-10T21:03:04.279Z,51.416016
2019-06-10T21:04:04.258Z,51.416016
2019-06-10T21:05:03.268Z,51.416016
2019-06-10T21:06:04.256Z,51.416016
2019-06-10T21:07:03.244Z,51.416016
2019-06-10T21:08:04.201Z,51.416016
2019-06-10T21:09:04.221Z,51.446533
2019-06-10T21:10:03.212Z,51.446533
2019-06-10T21:11:04.180Z,51.446533
2019-06-10T21:12:03.207Z,51.446533
2019-06-10T21:13:04.214Z,51.446533
2019-06-10T21:14:04.140Z,51.446533
2019-06-10T21:15:03.148Z,51.544189
2019-06-10T21:16:04.148Z,51.544189
2019-06-10T21:17:04.167Z,51.544189
2019-06-10T21:18:03.126Z,51.544189
2019-06-10T21:19:03.112Z,51.544189
2019-06-10T21:20:04.074Z,51.544189
2019-06-10T21:21:03.079Z,51.641846
2019-06-10T21:22:04.132Z,51.641846
2019-06-10T21:23:04.064Z,51.617432
2019-06-10T21:24:03.041Z,51.641846
2019-06-10T21:25:03.032Z,51.641846
2019-06-10T21:26:04.026Z,51.641846
2019-06-10T21:27:03.018Z,51.641846
2019-06-10T21:28:04.010Z,51.617432
2019-06-10T21:29:04.020Z,51.739502
2019-06-10T21:30:11.096Z,51.641846
2019-06-10T21:31:03.968Z,51.715088
2019-06-10T21:32:03.962Z,51.715088
2019-06-10T21:33:03.968Z,51.715088
2019-06-10T21:34:03.931Z,51.715088
2019-06-10T21:35:03.920Z,51.715088
2019-06-10T21:36:04.178Z,51.715088
2019-06-10T21:37:03.891Z,51.715088
2019-06-10T21:38:02.911Z,51.715088
2019-06-10T21:39:03.869Z,51.812744
2019-06-10T21:40:03.874Z,51.715088
2019-06-10T21:41:03.858Z,51.715088
2019-06-10T21:42:02.859Z,51.812744
2019-06-10T21:43:03.932Z,51.812744
2019-06-10T21:44:03.820Z,51.837158
2019-06-10T21:45:03.807Z,51.837158
2019-06-10T21:46:04.069Z,51.812744
2019-06-10T21:47:03.815Z,51.812744
2019-06-10T21:48:02.824Z,51.812744
2019-06-10T21:49:02.791Z,51.9104
2019-06-10T21:50:02.778Z,51.9104
2019-06-10T21:51:02.771Z,51.934814
2019-06-10T21:52:03.729Z,51.934814
2019-06-10T21:53:03.763Z,51.934814
2019-06-10T21:54:03.726Z,51.934814
2019-06-10T21:55:03.715Z,51.934814
2019-06-10T21:56:02.707Z,51.934814
2019-06-10T21:57:03.693Z,51.934814
2019-06-10T21:58:04.097Z,51.837158
2019-06-10T21:59:03.672Z,51.934814
2019-06-10T22:00:10.449Z,51.934814
2019-06-10T22:01:11.905Z,51.837158
2019-06-10T22:02:03.647Z,51.837158
2019-06-10T22:03:02.637Z,51.739502
2019-06-10T22:04:04.487Z,51.739502
2019-06-10T22:05:03.649Z,51.739502
2019-06-10T22:06:03.583Z,51.739502
2019-06-10T22:07:03.608Z,51.739502
2019-06-10T22:08:03.576Z,51.739502
2019-06-10T22:09:04.075Z,51.739502
2019-06-10T22:10:03.536Z,51.641846
2019-06-10T22:11:03.525Z,51.641846
2019-06-10T22:12:03.527Z,51.739502
2019-06-10T22:13:03.525Z,51.739502
2019-06-10T22:14:03.590Z,51.739502
2019-06-10T22:15:02.497Z,51.739502
2019-06-10T22:16:03.513Z,51.837158
2019-06-10T22:17:03.473Z,51.837158
2019-06-10T22:18:03.453Z,51.837158
2019-06-10T22:19:03.991Z,51.739502
2019-06-10T22:20:02.465Z,51.837158
2019-06-10T22:21:03.421Z,51.837158
2019-06-10T22:22:03.410Z,51.837158
2019-06-10T22:23:03.395Z,51.837158
2019-06-10T22:24:03.399Z,51.739502
2019-06-10T22:25:03.391Z,51.739502
2019-06-10T22:26:03.375Z,51.739502
2019-06-10T22:27:03.356Z,51.837158
2019-06-10T22:28:03.371Z,51.739502
2019-06-10T22:29:02.352Z,51.739502
2019-06-10T22:30:10.889Z,51.739502
2019-06-10T22:31:15.868Z,51.739502
2019-06-10T22:32:03.312Z,51.739502
2019-06-10T22:33:03.386Z,51.739502
2019-06-10T22:34:03.473Z,51.739502
2019-06-10T22:35:03.282Z,51.739502
2019-06-10T22:36:03.251Z,51.739502
2019-06-10T22:37:03.370Z,51.837158
2019-06-10T22:38:03.255Z,51.837158
2019-06-10T22:39:03.417Z,51.837158
2019-06-10T22:40:03.532Z,51.837158
2019-06-10T22:41:03.503Z,51.837158
2019-06-10T22:42:03.292Z,51.837158
2019-06-10T22:43:03.428Z,51.934814
2019-06-10T22:44:03.611Z,51.934814
2019-06-10T22:45:04.048Z,51.934814
2019-06-10T22:46:03.912Z,51.934814
2019-06-10T22:47:03.162Z,51.934814
2019-06-10T22:48:03.255Z,51.934814
2019-06-10T22:49:03.220Z,51.934814
2019-06-10T22:50:06.942Z,51.934814
2019-06-10T22:51:02.120Z,51.934814
2019-06-10T22:52:02.149Z,51.934814
2019-06-10T22:53:03.769Z,52.032471
2019-06-10T22:54:03.647Z,52.032471
2019-06-10T22:55:03.629Z,52.032471
2019-06-10T22:56:03.143Z,52.032471
2019-06-10T22:57:03.085Z,52.032471
2019-06-10T22:58:05.979Z,52.032471
2019-06-10T22:59:03.402Z,52.032471
2019-06-10T23:00:03.256Z,52.032471
2019-06-10T23:01:04.172Z,52.032471
2019-06-10T23:02:03.198Z,52.032471
2019-06-10T23:03:02.998Z,52.032471
2019-06-10T23:04:03.730Z,52.032471
2019-06-10T23:05:05.316Z,52.130127
2019-06-10T23:06:03.005Z,52.130127
2019-06-10T23:07:03.285Z,52.032471
2019-06-10T23:08:02.932Z,52.032471
2019-06-10T23:09:02.916Z,52.130127
2019-06-10T23:10:03.309Z,52.130127
2019-06-10T23:11:03.038Z,52.130127
2019-06-10T23:12:03.047Z,52.130127
2019-06-10T23:13:03.111Z,52.130127
2019-06-10T23:14:03.285Z,52.130127
2019-06-10T23:15:02.970Z,52.032471
2019-06-10T23:16:02.850Z,52.032471
2019-06-10T23:17:03.113Z,51.934814
2019-06-10T23:18:03.311Z,51.837158
2019-06-10T23:19:03.073Z,51.837158
2019-06-10T23:20:03.267Z,51.641846
2019-06-10T23:21:04.289Z,51.641846
2019-06-10T23:22:03.051Z,51.446533
2019-06-10T23:23:03.150Z,51.544189
2019-06-10T23:24:03.254Z,51.544189
2019-06-10T23:25:02.954Z,51.446533
2019-06-10T23:26:02.996Z,51.446533
2019-06-10T23:27:03.437Z,51.446533
2019-06-10T23:28:01.729Z,51.544189
2019-06-10T23:29:03.210Z,51.544189
2019-06-10T23:30:07.243Z,51.544189
2019-06-10T23:31:05.215Z,51.544189
2019-06-10T23:32:06.619Z,51.641846
2019-06-10T23:33:01.657Z,51.641846
2019-06-10T23:34:02.635Z,51.641846
2019-06-10T23:35:01.646Z,51.641846
2019-06-10T23:36:03.925Z,51.641846
2019-06-10T23:37:02.606Z,51.739502
2019-06-10T23:38:04.923Z,51.739502
2019-06-10T23:39:03.934Z,51.739502
2019-06-10T23:40:04.365Z,51.837158
2019-06-10T23:41:03.692Z,51.837158
2019-06-10T23:42:03.927Z,51.837158
2019-06-10T23:43:03.828Z,51.837158
2019-06-10T23:44:04.286Z,51.934814
2019-06-10T23:45:04.769Z,51.934814
2019-06-10T23:46:04.280Z,51.934814
2019-06-10T23:47:03.991Z,51.934814
2019-06-10T23:48:04.637Z,51.934814
2019-06-10T23:49:04.107Z,51.934814
2019-06-10T23:50:04.280Z,51.934814
2019-06-10T23:51:04.402Z,51.934814
2019-06-10T23:52:04.655Z,51.934814
2019-06-10T23:53:07.359Z,51.934814
2019-06-10T23:54:05.962Z,52.032471
2019-06-10T23:55:04.085Z,52.032471
2019-06-10T23:56:04.402Z,52.032471
2019-06-10T23:57:05.425Z,52.032471
2019-06-10T23:58:02.442Z,52.032471
2019-06-10T23:59:03.434Z,52.032471
